Time;durP1;ratioP1;P1;durP2;ratioP2;P2;SDS_P1;SDS_P2;PMS_P1;PMS_P2;Temp;Humidity;BMP_temperature;BMP_pressure;BME280_temperature;BME280_humidity;BME280_pressure;Samples;Min_cycle;Max_cycle;Signal;HPM_P1;HPM_P2
2022/09/06 00:01:37;;;;;;;;;;;;;;;22.00;30.41;98619.84;5059615;28;1092;-80
2022/09/06 00:04:02;;;;;;;;;;;;;;;21.94;30.83;98621.59;5058754;28;961;-80
2022/09/06 00:06:28;;;;;;;;;;;;;;;21.89;30.89;98616.41;5077253;28;1011;-80
2022/09/06 00:08:53;;;;;;;;;;;;;;;21.87;30.77;98616.06;5076772;28;926;-80
2022/09/06 00:11:19;;;;;;;;;;;;;;;21.95;30.49;98612.66;5076834;28;957;-80
2022/09/06 00:13:45;;;;;;;;;;;;;;;21.78;30.73;98608.91;5076687;28;801;-80
2022/09/06 00:16:11;;;;;;;;;;;;;;;21.83;30.55;98610.44;5077310;28;1972;-80
2022/09/06 00:18:37;;;;;;;;;;;;;;;21.85;30.50;98605.94;5058056;28;893;-80
2022/09/06 00:21:03;;;;;;;;;;;;;;;21.88;30.51;98612.00;5076801;28;870;-80
2022/09/06 00:23:28;;;;;;;;;;;;;;;21.84;30.63;98612.84;5076668;28;911;-80
2022/09/06 00:26:00;;;;;;;;;;;;;;;21.77;30.64;98618.66;5058023;28;960;-80
2022/09/06 00:28:25;;;;;;;;;;;;;;;21.76;30.78;98622.72;5059003;28;876;-80
2022/09/06 00:30:51;;;;;;;;;;;;;;;21.73;30.62;98612.25;5076928;28;908;-80
2022/09/06 00:33:16;;;;;;;;;;;;;;;21.68;30.67;98604.22;5077027;28;911;-79
2022/09/06 00:35:46;;;;;;;;;;;;;;;21.68;30.73;98609.09;5057805;28;1983;-80
2022/09/06 00:38:11;;;;;;;;;;;;;;;21.74;30.77;98596.84;5058718;28;1026;-80
2022/09/06 00:40:37;;;;;;;;;;;;;;;21.80;30.59;98603.59;5058660;28;939;-80
2022/09/06 00:43:02;;;;;;;;;;;;;;;21.71;30.58;98613.88;5077164;28;998;-80
2022/09/06 00:45:27;;;;;;;;;;;;;;;21.74;30.49;98605.34;5076599;28;1083;-80
2022/09/06 00:47:53;;;;;;;;;;;;;;;22.35;30.60;98607.06;5058717;28;839;-80
2022/09/06 00:50:19;;;;;;;;;;;;;;;22.36;31.14;98603.78;5058581;28;903;-80
2022/09/06 00:52:44;;;;;;;;;;;;;;;22.28;30.96;98608.00;5076537;28;887;-80
2022/09/06 00:55:10;;;;;;;;;;;;;;;22.01;30.94;98610.13;5058192;28;1910;-79
2022/09/06 00:57:35;;;;;;;;;;;;;;;21.92;30.96;98612.72;5058544;28;941;-80
2022/09/06 01:00:01;;;;;;;;;;;;;;;21.94;31.05;98615.91;5058728;28;927;-80
2022/09/06 01:02:27;;;;;;;;;;;;;;;21.95;30.62;98617.53;5076076;28;1181;-79
2022/09/06 01:04:52;;;;;;;;;;;;;;;21.86;31.00;98620.91;5076659;28;911;-80
2022/09/06 01:07:38;;;;;;;;;;;;;;;21.77;31.01;98615.81;5076438;28;817;-80
2022/09/06 01:10:09;;;;;;;;;;;;;;;21.78;31.10;98614.56;5014274;28;1006;-80
2022/09/06 01:12:47;;;;;;;;;;;;;;;21.75;30.89;98621.09;5014616;28;1078;-80
2022/09/06 01:15:16;;;;;;;;;;;;;;;21.64;31.23;98614.03;5014129;28;1898;-80
2022/09/06 01:17:57;;;;;;;;;;;;;;;21.84;30.64;98626.22;5014503;28;1007;-80
2022/09/06 01:20:35;;;;;;;;;;;;;;;21.72;30.99;98621.19;5014280;28;895;-80
2022/09/06 01:23:03;;;;;;;;;;;;;;;21.51;31.24;98617.47;5014339;28;900;-80
2022/09/06 01:25:41;;;;;;;;;;;;;;;21.39;31.07;98577.63;5014152;28;969;-80
2022/09/06 01:28:25;;;;;;;;;;;;;;;21.74;30.92;98625.16;5014168;28;899;-80
2022/09/06 01:31:11;;;;;;;;;;;;;;;21.70;30.99;98613.09;5014002;28;995;-79
2022/09/06 01:33:51;;;;;;;;;;;;;;;21.66;30.83;98623.69;4975026;28;1029;-80
2022/09/06 01:36:17;;;;;;;;;;;;;;;21.54;30.98;98621.47;4958905;28;1906;-80
2022/09/06 01:38:43;;;;;;;;;;;;;;;21.69;30.80;98616.38;4959222;28;932;-79
2022/09/06 01:41:09;;;;;;;;;;;;;;;21.64;30.73;98614.81;4959107;28;1052;-80
2022/09/06 01:43:35;;;;;;;;;;;;;;;21.95;31.08;98611.84;4975074;28;993;-80
2022/09/06 01:46:03;;;;;;;;;;;;;;;22.19;31.48;98615.50;4944203;28;1062;-79
2022/09/06 01:48:29;;;;;;;;;;;;;;;22.40;31.00;98614.28;4997614;28;1020;-80
2022/09/06 01:51:01;;;;;;;;;;;;;;;22.21;30.83;98610.97;5014003;28;911;-80
2022/09/06 01:53:26;;;;;;;;;;;;;;;21.92;31.21;98607.06;5013937;28;903;-80
2022/09/06 01:56:10;;;;;;;;;;;;;;;21.95;31.14;98600.53;5013860;28;1898;-80
2022/09/06 01:58:35;;;;;;;;;;;;;;;21.83;31.28;98599.13;4997433;28;1013;-80
2022/09/06 02:01:05;;;;;;;;;;;;;;;21.87;30.99;98594.19;5013843;28;1034;-80
2022/09/06 02:03:37;;;;;;;;;;;;;;;21.87;31.03;98590.56;4997561;28;955;-80
2022/09/06 02:06:13;;;;;;;;;;;;;;;21.77;31.16;98596.00;5000422;28;870;-79
2022/09/06 02:08:43;;;;;;;;;;;;;;;21.78;30.94;98597.59;5017215;28;907;-80
2022/09/06 02:11:09;;;;;;;;;;;;;;;21.84;30.93;98601.50;5025534;28;1017;-80
2022/09/06 02:13:36;;;;;;;;;;;;;;;21.76;30.95;98594.41;5079472;28;855;-80
2022/09/06 02:16:03;;;;;;;;;;;;;;;21.81;30.73;98596.72;5061457;28;1906;-80
2022/09/06 02:18:48;;;;;;;;;;;;;;;21.78;30.67;98591.91;5079445;28;777;-80
2022/09/06 02:21:14;;;;;;;;;;;;;;;21.74;30.70;98585.50;5000621;28;2284;-80
2022/09/06 02:23:39;;;;;;;;;;;;;;;21.70;30.77;98587.59;5017076;28;933;-80
2022/09/06 02:26:12;;;;;;;;;;;;;;;22.09;31.46;98580.41;5016965;28;929;-80
2022/09/06 02:28:37;;;;;;;;;;;;;;;22.32;31.33;98586.03;5017499;28;1100;-80
2022/09/06 02:31:05;;;;;;;;;;;;;;;22.25;31.18;98586.19;5017041;28;939;-80
2022/09/06 02:33:30;;;;;;;;;;;;;;;22.13;30.90;98583.22;5016747;28;1017;-80
2022/09/06 02:35:56;;;;;;;;;;;;;;;21.85;31.08;98579.66;5016866;28;1988;-80
2022/09/06 02:38:22;;;;;;;;;;;;;;;21.82;31.16;98575.66;5016876;28;1137;-80
2022/09/06 02:40:47;;;;;;;;;;;;;;;21.72;31.34;98570.19;5016957;28;1065;-80
2022/09/06 02:43:13;;;;;;;;;;;;;;;21.67;31.46;98571.50;5016808;28;954;-80
2022/09/06 02:45:38;;;;;;;;;;;;;;;21.81;31.07;98574.06;5016657;28;970;-80
2022/09/06 02:48:04;;;;;;;;;;;;;;;21.92;30.74;98578.72;5016887;28;1000;-80
2022/09/06 02:50:29;;;;;;;;;;;;;;;21.75;31.05;98572.94;5016724;28;965;-80
2022/09/06 02:53:03;;;;;;;;;;;;;;;21.79;30.96;98587.06;5000655;28;1390;-80
2022/09/06 02:55:28;;;;;;;;;;;;;;;21.79;30.84;98587.84;5016595;28;1906;-80
2022/09/06 02:57:54;;;;;;;;;;;;;;;21.77;30.85;98572.53;5033122;28;1034;-80
2022/09/06 03:00:19;;;;;;;;;;;;;;;21.77;31.03;98583.84;5078063;28;1205;-80
2022/09/06 03:02:45;;;;;;;;;;;;;;;21.78;30.94;98579.78;5065668;28;1170;-80
2022/09/06 03:05:11;;;;;;;;;;;;;;;21.87;30.51;98582.06;5065983;28;1146;-80
2022/09/06 03:07:36;;;;;;;;;;;;;;;22.07;31.17;98586.53;5071767;28;1241;-80
2022/09/06 03:10:02;;;;;;;;;;;;;;;22.36;31.05;98581.09;5069615;28;1332;-80
2022/09/06 03:12:27;;;;;;;;;;;;;;;22.51;30.89;98584.44;5068165;28;1392;-80
2022/09/06 03:14:53;;;;;;;;;;;;;;;22.24;30.79;98581.78;5089460;28;1976;-80
2022/09/06 03:17:18;;;;;;;;;;;;;;;22.02;31.21;98583.38;5087875;28;1212;-80
2022/09/06 03:19:45;;;;;;;;;;;;;;;21.92;30.99;98584.41;5085918;28;1205;-80
2022/09/06 03:22:10;;;;;;;;;;;;;;;21.76;31.28;98582.22;5089026;28;1382;-80
2022/09/06 03:24:36;;;;;;;;;;;;;;;21.89;30.78;98586.06;5086096;28;1232;-80
2022/09/06 03:27:01;;;;;;;;;;;;;;;21.87;30.91;98588.53;5089333;28;1315;-81
2022/09/06 03:29:27;;;;;;;;;;;;;;;21.94;30.98;98587.59;5051138;28;1301;-80
2022/09/06 03:31:52;;;;;;;;;;;;;;;21.89;30.83;98579.59;5082875;28;1308;-80
2022/09/06 03:34:18;;;;;;;;;;;;;;;21.77;31.28;98590.31;5078120;28;849;-80
2022/09/06 03:36:43;;;;;;;;;;;;;;;21.74;31.28;98579.84;5077795;28;1969;-81
2022/09/06 03:39:08;;;;;;;;;;;;;;;21.83;30.88;98588.59;5083052;28;1275;-80
2022/09/06 03:41:34;;;;;;;;;;;;;;;21.81;30.90;98584.56;5084642;28;1368;-79
2022/09/06 03:43:59;;;;;;;;;;;;;;;21.68;31.35;98581.56;5077104;28;1635;-80
2022/09/06 03:46:29;;;;;;;;;;;;;;;21.75;31.02;98581.44;5043216;28;1199;-79
2022/09/06 03:48:54;;;;;;;;;;;;;;;21.85;30.99;98573.97;5077609;28;880;-80
2022/09/06 03:51:20;;;;;;;;;;;;;;;21.81;31.02;98579.72;5077634;28;782;-79
2022/09/06 03:53:45;;;;;;;;;;;;;;;21.71;31.18;98580.72;5077469;28;925;-79
2022/09/06 03:56:11;;;;;;;;;;;;;;;21.76;31.17;98577.41;5077089;28;1986;-79
2022/09/06 03:58:36;;;;;;;;;;;;;;;21.72;31.41;98576.66;5076806;28;1746;-79
2022/09/06 04:01:03;;;;;;;;;;;;;;;21.87;30.80;98582.06;5077026;28;997;-79
2022/09/06 04:03:29;;;;;;;;;;;;;;;21.78;31.28;98591.91;5077632;28;964;-79
2022/09/06 04:05:54;;;;;;;;;;;;;;;21.63;31.29;98590.56;5059472;28;936;-78
2022/09/06 04:08:20;;;;;;;;;;;;;;;21.76;30.98;98588.72;5058426;28;1035;-79
2022/09/06 04:10:48;;;;;;;;;;;;;;;21.81;31.27;98591.06;5071776;28;1513;-79
2022/09/06 04:13:13;;;;;;;;;;;;;;;21.93;30.65;98591.66;5056237;28;918;-80
2022/09/06 04:15:39;;;;;;;;;;;;;;;21.81;30.81;98598.75;5056987;28;1969;-79
2022/09/06 04:18:04;;;;;;;;;;;;;;;21.83;30.91;98591.41;5057053;28;991;-80
2022/09/06 04:20:30;;;;;;;;;;;;;;;21.78;31.09;98591.91;5057139;28;984;-79
2022/09/06 04:22:55;;;;;;;;;;;;;;;21.68;31.46;98592.91;5057474;28;1465;-80
2022/09/06 04:25:21;;;;;;;;;;;;;;;21.75;31.29;98595.59;5054705;28;934;-79
2022/09/06 04:27:46;;;;;;;;;;;;;;;21.76;31.03;98605.72;5056746;28;880;-80
2022/09/06 04:30:12;;;;;;;;;;;;;;;21.92;31.77;98599.38;5039198;28;991;-78
2022/09/06 04:32:37;;;;;;;;;;;;;;;22.06;31.83;98595.44;5056360;28;935;-80
2022/09/06 04:35:03;;;;;;;;;;;;;;;22.27;32.16;98600.72;5056674;28;1905;-79
2022/09/06 04:37:28;;;;;;;;;;;;;;;22.27;31.51;98592.22;5064329;28;1363;-79
2022/09/06 04:39:54;;;;;;;;;;;;;;;22.07;31.62;98597.03;5049763;28;1508;-79
2022/09/06 04:42:19;;;;;;;;;;;;;;;21.92;31.35;98590.06;5075019;28;1551;-79
2022/09/06 04:44:45;;;;;;;;;;;;;;;21.74;31.47;98593.22;5071679;28;1555;-79
2022/09/06 04:47:14;;;;;;;;;;;;;;;21.85;31.40;98599.47;5038938;28;1278;-79
2022/09/06 04:49:40;;;;;;;;;;;;;;;21.78;31.67;98603.25;5038887;28;937;-79
2022/09/06 04:52:05;;;;;;;;;;;;;;;21.95;31.38;98600.53;5038845;28;1007;-79
2022/09/06 04:54:31;;;;;;;;;;;;;;;21.78;31.52;98597.59;5056620;28;895;-79
2022/09/06 04:56:56;;;;;;;;;;;;;;;21.77;31.58;98600.84;5063313;28;1906;-80
2022/09/06 04:59:22;;;;;;;;;;;;;;;21.87;31.68;98588.53;5072192;28;1784;-79
2022/09/06 05:01:47;;;;;;;;;;;;;;;21.72;31.90;98590.81;5057189;28;1666;-79
2022/09/06 05:04:13;;;;;;;;;;;;;;;21.67;32.00;98599.81;5046399;28;1705;-80
2022/09/06 05:06:40;;;;;;;;;;;;;;;21.69;31.73;98597.34;5076329;28;925;-80
2022/09/06 05:09:06;;;;;;;;;;;;;;;21.78;31.56;98600.41;5066578;28;1586;-80
2022/09/06 05:11:31;;;;;;;;;;;;;;;21.90;31.63;98606.69;5063522;28;1236;-79
2022/09/06 05:13:57;;;;;;;;;;;;;;;21.59;31.92;98606.81;5062892;28;866;-80
2022/09/06 05:16:22;;;;;;;;;;;;;;;21.75;31.71;98606.94;5041957;28;1985;-79
2022/09/06 05:18:48;;;;;;;;;;;;;;;21.66;31.93;98609.53;5076422;28;798;-79
2022/09/06 05:21:13;;;;;;;;;;;;;;;21.95;31.44;98612.66;5076345;28;1570;-79
2022/09/06 05:23:38;;;;;;;;;;;;;;;21.84;31.52;98614.88;5058449;28;841;-80
2022/09/06 05:26:05;;;;;;;;;;;;;;;21.90;31.51;98615.19;5075961;28;1007;-79
2022/09/06 05:28:30;;;;;;;;;;;;;;;21.76;31.93;98611.38;5076105;28;967;-79
2022/09/06 05:31:08;;;;;;;;;;;;;;;21.79;31.82;98613.34;5076144;28;857;-79
2022/09/06 05:33:34;;;;;;;;;;;;;;;21.79;31.62;98621.84;5058040;28;1055;-80
2022/09/06 05:35:59;;;;;;;;;;;;;;;21.87;31.50;98627.41;5076166;28;1977;-80
2022/09/06 05:38:24;;;;;;;;;;;;;;;21.84;31.67;98621.34;5076383;28;907;-79
2022/09/06 05:40:50;;;;;;;;;;;;;;;21.67;31.74;98616.81;5078431;28;880;-79
2022/09/06 05:43:16;;;;;;;;;;;;;;;21.88;31.50;98617.66;5081278;28;908;-79
2022/09/06 05:45:41;;;;;;;;;;;;;;;22.00;31.46;98608.53;5079600;28;1604;-79
2022/09/06 05:48:07;;;;;;;;;;;;;;;22.04;31.44;98604.38;5061896;28;883;-80
2022/09/06 05:50:33;;;;;;;;;;;;;;;21.89;31.53;98619.25;5062165;28;1225;-80
2022/09/06 05:52:58;;;;;;;;;;;;;;;21.69;31.92;98617.16;5075490;28;1643;-79
2022/09/06 05:55:23;;;;;;;;;;;;;;;21.91;31.76;98617.56;5070695;28;1926;-80
2022/09/06 05:57:49;;;;;;;;;;;;;;;21.89;31.39;98619.25;5061173;28;1564;-80
2022/09/06 06:00:14;;;;;;;;;;;;;;;21.91;31.70;98617.56;5068098;28;1657;-79
2022/09/06 06:02:40;;;;;;;;;;;;;;;21.76;32.10;98622.72;5061724;28;909;-80
2022/09/06 06:05:06;;;;;;;;;;;;;;;21.84;31.92;98629.84;5081236;28;978;-80
2022/09/06 06:07:32;;;;;;;;;;;;;;;21.71;31.88;98628.88;5061643;28;842;-79
2022/09/06 06:09:57;;;;;;;;;;;;;;;21.74;32.07;98615.88;5074639;28;1858;-79
2022/09/06 06:12:23;;;;;;;;;;;;;;;21.89;31.67;98619.25;5059561;28;952;-80
2022/09/06 06:14:48;;;;;;;;;;;;;;;21.75;31.83;98626.75;5068710;28;1700;-80
2022/09/06 06:17:13;;;;;;;;;;;;;;;22.01;31.60;98621.44;5061337;28;1910;-80
2022/09/06 06:19:39;;;;;;;;;;;;;;;22.02;31.47;98629.53;5079695;28;871;-80
2022/09/06 06:22:04;;;;;;;;;;;;;;;21.82;31.55;98626.66;5061213;28;1116;-80
2022/09/06 06:24:30;;;;;;;;;;;;;;;21.87;31.54;98627.41;5079209;28;868;-80
2022/09/06 06:26:55;;;;;;;;;;;;;;;21.99;31.59;98621.09;5061350;28;1691;-79
2022/09/06 06:29:21;;;;;;;;;;;;;;;21.97;31.55;98623.56;5060012;28;921;-80
2022/09/06 06:31:46;;;;;;;;;;;;;;;21.71;32.02;98626.03;5060883;28;1204;-79
2022/09/06 06:34:12;;;;;;;;;;;;;;;21.80;31.82;98623.44;5078704;28;771;-79
2022/09/06 06:36:37;;;;;;;;;;;;;;;21.68;31.55;98621.22;5079774;28;1985;-80
2022/09/06 06:39:03;;;;;;;;;;;;;;;21.79;31.53;98621.84;5058746;28;988;-79
2022/09/06 06:41:30;;;;;;;;;;;;;;;21.95;31.08;98623.19;5041104;28;954;-80
2022/09/06 06:44:02;;;;;;;;;;;;;;;21.82;31.21;98623.81;5036686;28;954;-80
2022/09/06 06:46:30;;;;;;;;;;;;;;;21.67;31.83;98625.28;5036629;28;924;-80
2022/09/06 06:48:55;;;;;;;;;;;;;;;21.74;31.37;98625.16;5036492;28;925;-80
2022/09/06 06:51:24;;;;;;;;;;;;;;;21.92;30.76;98632.56;5035274;28;1775;-80
2022/09/06 06:53:50;;;;;;;;;;;;;;;22.14;31.03;98627.34;5036229;28;903;-80
2022/09/06 06:56:22;;;;;;;;;;;;;;;22.75;31.30;98624.09;5019021;28;1981;-79
2022/09/06 06:58:49;;;;;;;;;;;;;;;22.45;32.05;98627.94;5035459;28;1806;-79
2022/09/06 07:01:15;;;;;;;;;;;;;;;22.18;31.98;98628.88;5019963;28;1090;-79
2022/09/06 07:03:40;;;;;;;;;;;;;;;22.15;31.64;98626.88;5019809;28;957;-80
2022/09/06 07:06:06;;;;;;;;;;;;;;;21.85;32.08;98631.44;5001837;28;1841;-80
2022/09/06 07:08:31;;;;;;;;;;;;;;;21.82;31.71;98632.31;5033039;28;1542;-79
2022/09/06 07:10:57;;;;;;;;;;;;;;;21.77;31.29;98629.97;5015193;28;1732;-80
2022/09/06 07:13:22;;;;;;;;;;;;;;;21.75;30.99;98638.09;5015714;28;1546;-79
2022/09/06 07:15:48;;;;;;;;;;;;;;;21.73;31.05;98634.91;4999891;28;1975;-80
2022/09/06 07:18:16;;;;;;;;;;;;;;;21.70;31.25;98630.09;4999756;28;1017;-79
2022/09/06 07:20:42;;;;;;;;;;;;;;;21.75;30.99;98635.25;4972179;28;1935;-79
2022/09/06 07:23:07;;;;;;;;;;;;;;;21.89;30.38;98630.59;4957962;29;975;-80
2022/09/06 07:25:33;;;;;;;;;;;;;;;21.67;30.34;98633.00;4957644;29;890;-79
2022/09/06 07:28:00;;;;;;;;;;;;;;;21.72;30.39;98633.31;4955186;28;1731;-79
2022/09/06 07:30:25;;;;;;;;;;;;;;;21.58;30.33;98627.88;4954484;29;960;-79
2022/09/06 07:32:51;;;;;;;;;;;;;;;21.65;30.12;98641.91;4954323;29;945;-80
2022/09/06 07:35:19;;;;;;;;;;;;;;;21.89;30.33;98647.59;4954518;29;1999;-79
2022/09/06 07:37:51;;;;;;;;;;;;;;;22.34;29.90;98639.50;4955337;28;1822;-80
2022/09/06 07:40:16;;;;;;;;;;;;;;;22.30;30.30;98650.09;4957429;29;914;-80
2022/09/06 07:42:42;;;;;;;;;;;;;;;22.22;30.84;98643.75;4992532;28;960;-80
2022/09/06 07:45:07;;;;;;;;;;;;;;;22.28;30.39;98642.03;4996394;28;933;-79
2022/09/06 07:47:33;;;;;;;;;;;;;;;22.05;30.08;98650.53;4995425;28;2103;-79
2022/09/06 07:49:58;;;;;;;;;;;;;;;21.79;30.56;98655.84;4976715;28;834;-80
2022/09/06 07:52:27;;;;;;;;;;;;;;;21.63;30.62;98652.88;5008693;28;878;-78
2022/09/06 07:54:52;;;;;;;;;;;;;;;21.64;30.53;98643.13;5037349;28;860;-79
2022/09/06 07:57:19;;;;;;;;;;;;;;;21.70;30.04;98641.41;5019649;28;1973;-80
2022/09/06 07:59:44;;;;;;;;;;;;;;;21.76;29.83;98645.38;5037173;28;1811;-79
2022/09/06 08:02:10;;;;;;;;;;;;;;;21.74;29.66;98647.03;5053660;28;1064;-80
2022/09/06 08:04:35;;;;;;;;;;;;;;;21.71;29.51;98640.22;5039330;28;926;-79
2022/09/06 08:07:01;;;;;;;;;;;;;;;21.64;29.59;98645.97;5038456;28;987;-79
2022/09/06 08:09:26;;;;;;;;;;;;;;;21.69;29.32;98651.16;5053706;28;1727;-79
2022/09/06 08:11:52;;;;;;;;;;;;;;;22.01;29.47;98644.13;5072861;28;1766;-80
2022/09/06 08:14:17;;;;;;;;;;;;;;;22.10;29.39;98650.03;5077078;28;890;-79
2022/09/06 08:16:43;;;;;;;;;;;;;;;22.18;29.27;98650.75;5058275;28;1973;-80
2022/09/06 08:19:09;;;;;;;;;;;;;;;22.05;29.36;98645.66;5077238;28;987;-80
2022/09/06 08:21:35;;;;;;;;;;;;;;;22.01;29.07;98638.44;5069049;28;1683;-80
2022/09/06 08:24:04;;;;;;;;;;;;;;;21.80;29.41;98640.44;5056820;28;939;-79
2022/09/06 08:26:30;;;;;;;;;;;;;;;21.91;29.03;98633.78;5056541;28;904;-79
2022/09/06 08:28:57;;;;;;;;;;;;;;;21.76;29.06;98634.06;5023139;28;1146;-80
2022/09/06 08:31:23;;;;;;;;;;;;;;;21.67;29.31;98630.97;5043079;28;1724;-79
2022/09/06 08:33:48;;;;;;;;;;;;;;;21.65;28.98;98627.75;5059330;28;882;-79
2022/09/06 08:36:14;;;;;;;;;;;;;;;21.63;29.34;98632.25;5076934;28;1905;-79
2022/09/06 08:38:39;;;;;;;;;;;;;;;21.85;30.18;98625.78;5076785;28;956;-79
2022/09/06 08:41:06;;;;;;;;;;;;;;;21.86;30.53;98620.91;5039228;28;1898;-79
2022/09/06 08:43:32;;;;;;;;;;;;;;;21.75;30.59;98621.09;5034347;28;901;-79
2022/09/06 08:45:57;;;;;;;;;;;;;;;21.78;30.34;98625.91;5034459;28;924;-79
2022/09/06 08:48:23;;;;;;;;;;;;;;;21.59;30.26;98635.94;5034876;28;955;-79
2022/09/06 08:51:03;;;;;;;;;;;;;;;21.89;30.35;98636.25;5034273;28;1747;-79
2022/09/06 08:53:29;;;;;;;;;;;;;;;22.24;29.87;98624.28;5054060;28;953;-79
2022/09/06 08:55:55;;;;;;;;;;;;;;;22.22;29.70;98623.91;5054117;28;1980;-79
2022/09/06 08:58:35;;;;;;;;;;;;;;;22.15;29.54;98621.22;5054084;28;926;-79
2022/09/06 09:01:17;;;;;;;;;;;;;;;21.97;29.62;98615.06;5052409;28;1758;-79
2022/09/06 09:03:43;;;;;;;;;;;;;;;21.81;29.77;98608.06;5050623;28;982;-80
2022/09/06 09:06:09;;;;;;;;;;;;;;;21.67;30.07;98608.31;5034237;28;888;-79
2022/09/06 09:08:54;;;;;;;;;;;;;;;21.59;29.79;98609.66;5034061;28;914;-79
2022/09/06 09:11:20;;;;;;;;;;;;;;;21.70;29.51;98601.75;4997796;28;1725;-80
2022/09/06 09:13:46;;;;;;;;;;;;;;;21.38;29.84;98601.50;5011143;28;1082;-80
2022/09/06 09:16:14;;;;;;;;;;;;;;;21.64;29.27;98600.66;4999043;28;1967;-79
2022/09/06 09:18:41;;;;;;;;;;;;;;;21.99;28.93;98595.59;5017208;28;2059;-79
2022/09/06 09:21:06;;;;;;;;;;;;;;;22.22;28.52;98598.41;5002494;28;892;-79
2022/09/06 09:23:32;;;;;;;;;;;;;;;22.29;28.32;98598.28;5002032;28;1027;-79
2022/09/06 09:26:02;;;;;;;;;;;;;;;22.04;28.62;98598.72;5018583;28;962;-79
2022/09/06 09:28:28;;;;;;;;;;;;;;;21.98;28.53;98591.16;5000724;28;1796;-79
2022/09/06 09:30:54;;;;;;;;;;;;;;;21.63;29.11;98584.91;5018212;28;999;-79
2022/09/06 09:33:22;;;;;;;;;;;;;;;21.63;29.24;98576.41;4985750;28;1141;-79
2022/09/06 09:35:47;;;;;;;;;;;;;;;21.75;28.63;98581.44;5017829;28;1918;-79
2022/09/06 09:38:18;;;;;;;;;;;;;;;21.61;28.79;98587.38;5000912;28;1911;-79
2022/09/06 09:40:56;;;;;;;;;;;;;;;22.28;27.81;98588.19;5001419;28;1051;-79
2022/09/06 09:43:22;;;;;;;;;;;;;;;22.30;27.93;98585.69;5039594;28;963;-79
2022/09/06 09:46:07;;;;;;;;;;;;;;;21.97;28.18;98575.41;5041987;28;1265;-79
2022/09/06 09:48:33;;;;;;;;;;;;;;;21.93;28.40;98580.34;5076036;28;1881;-79
2022/09/06 09:51:04;;;;;;;;;;;;;;;21.81;28.45;98584.56;5079384;28;883;-79
2022/09/06 09:53:30;;;;;;;;;;;;;;;21.88;28.28;98587.28;5077176;28;865;-79
2022/09/06 09:55:56;;;;;;;;;;;;;;;21.82;28.19;98578.50;5079938;28;1906;-79
2022/09/06 09:58:34;;;;;;;;;;;;;;;21.79;28.58;98570.84;5061252;28;1831;-79
2022/09/06 10:01:20;;;;;;;;;;;;;;;22.08;28.17;98564.66;5061783;28;1142;-79
2022/09/06 10:03:46;;;;;;;;;;;;;;;22.23;27.98;98571.66;5061561;28;951;-79
2022/09/06 10:06:12;;;;;;;;;;;;;;;22.13;27.77;98561.34;5061673;28;1026;-79
2022/09/06 10:08:38;;;;;;;;;;;;;;;22.04;27.91;98555.41;5077418;28;1762;-79
2022/09/06 10:11:04;;;;;;;;;;;;;;;21.76;28.25;98554.75;5060715;28;2069;-79
2022/09/06 10:13:30;;;;;;;;;;;;;;;21.92;28.27;98553.22;5079109;28;878;-79
2022/09/06 10:15:57;;;;;;;;;;;;;;;21.79;28.20;98553.84;5061465;28;1985;-79
2022/09/06 10:18:36;;;;;;;;;;;;;;;21.72;28.25;98548.34;5060327;28;1655;-79
2022/09/06 10:21:02;;;;;;;;;;;;;;;22.19;27.96;98556.75;5079428;28;956;-79
2022/09/06 10:23:37;;;;;;;;;;;;;;;22.35;27.56;98551.16;5079413;28;929;-79
2022/09/06 10:26:10;;;;;;;;;;;;;;;22.32;27.48;98528.53;5078336;28;775;-79
2022/09/06 10:28:44;;;;;;;;;;;;;;;22.01;27.79;98542.09;5056012;28;1695;-79
2022/09/06 10:31:15;;;;;;;;;;;;;;;21.63;28.47;98533.94;5078843;28;1955;-79
2022/09/06 10:34:07;;;;;;;;;;;;;;;21.60;28.44;98540.44;5079051;28;958;-80
2022/09/06 10:36:33;;;;;;;;;;;;;;;21.62;28.27;98549.31;4996410;28;1907;-79
2022/09/06 10:39:00;;;;;;;;;;;;;;;21.66;28.18;98533.06;4981105;28;1053;-80
2022/09/06 10:41:43;;;;;;;;;;;;;;;21.68;28.10;98530.59;4981096;28;894;-79
2022/09/06 10:44:11;;;;;;;;;;;;;;;22.32;27.40;98518.00;4997292;28;898;-79
2022/09/06 10:46:37;;;;;;;;;;;;;;;22.57;26.85;98513.84;4992131;28;1709;-79
2022/09/06 10:49:02;;;;;;;;;;;;;;;22.27;27.38;98520.56;4981184;28;928;-79
2022/09/06 10:51:28;;;;;;;;;;;;;;;22.12;27.79;98519.25;4964634;28;986;-80
2022/09/06 10:53:54;;;;;;;;;;;;;;;22.00;27.76;98529.19;4996994;28;1018;-79
2022/09/06 10:56:22;;;;;;;;;;;;;;;21.90;27.66;98530.19;4980433;28;1986;-79
2022/09/06 10:59:04;;;;;;;;;;;;;;;21.75;28.19;98536.13;4980681;28;969;-79
2022/09/06 11:01:32;;;;;;;;;;;;;;;21.70;28.14;98533.78;4980834;28;1215;-80
2022/09/06 11:03:58;;;;;;;;;;;;;;;22.10;27.40;98522.50;4994680;28;1722;-79
2022/09/06 11:06:24;;;;;;;;;;;;;;;22.31;27.06;98527.75;4961260;28;955;-79
2022/09/06 11:08:54;;;;;;;;;;;;;;;22.16;27.19;98526.44;4961282;28;919;-79
2022/09/06 11:11:25;;;;;;;;;;;;;;;21.90;27.65;98530.97;4961514;28;924;-79
2022/09/06 11:13:50;;;;;;;;;;;;;;;21.79;27.82;98514.19;5017682;28;1081;-79
2022/09/06 11:16:24;;;;;;;;;;;;;;;21.68;27.99;98513.59;5077479;28;1975;-79
2022/09/06 11:19:04;;;;;;;;;;;;;;;21.82;28.16;98519.00;5060440;28;861;-79
2022/09/06 11:21:35;;;;;;;;;;;;;;;21.63;28.26;98514.09;5051444;28;1790;-79
2022/09/06 11:24:39;;;;;;;;;;;;;;;21.78;27.79;98523.94;5077882;28;856;-79
2022/09/06 11:27:05;;;;;;;;;;;;;;;22.22;27.30;98507.69;5035921;28;1030;-80
2022/09/06 11:29:31;;;;;;;;;;;;;;;22.59;26.84;98508.53;5035873;28;1146;-79
2022/09/06 11:31:57;;;;;;;;;;;;;;;22.10;27.18;98497.00;5018637;28;1939;-79
2022/09/06 11:34:31;;;;;;;;;;;;;;;21.96;27.72;98511.44;5018723;28;1720;-79
2022/09/06 11:37:00;;;;;;;;;;;;;;;21.78;27.81;98511.81;5018969;28;1899;-79
2022/09/06 11:39:46;;;;;;;;;;;;;;;21.74;27.77;98499.75;5019044;28;931;-80
2022/09/06 11:42:30;;;;;;;;;;;;;;;21.76;27.88;98509.41;5035168;28;1574;-79
2022/09/06 11:44:55;;;;;;;;;;;;;;;21.81;27.66;98510.91;5024508;28;1863;-79
2022/09/06 11:47:50;;;;;;;;;;;;;;;21.74;27.93;98500.53;5035615;28;971;-80
2022/09/06 11:50:18;;;;;;;;;;;;;;;22.12;27.12;98502.25;4956961;29;1020;-79
2022/09/06 11:53:03;;;;;;;;;;;;;;;22.50;26.81;98505.50;4973394;28;987;-79
2022/09/06 11:55:38;;;;;;;;;;;;;;;22.14;27.23;98503.41;4956331;29;1906;-79
2022/09/06 11:58:19;;;;;;;;;;;;;;;21.84;27.56;98505.19;4952556;28;953;-79
2022/09/06 12:00:45;;;;;;;;;;;;;;;21.69;27.66;98495.38;4976299;28;1166;-79
2022/09/06 12:03:29;;;;;;;;;;;;;;;21.95;27.44;98496.47;4960768;28;1719;-79
2022/09/06 12:06:12;;;;;;;;;;;;;;;21.73;27.79;98504.59;4995556;28;1021;-79
2022/09/06 12:08:38;;;;;;;;;;;;;;;21.62;28.08;98492.69;4995626;28;1173;-79
2022/09/06 12:11:20;;;;;;;;;;;;;;;21.58;28.12;98491.94;4979678;28;744;-79
2022/09/06 12:13:46;;;;;;;;;;;;;;;22.09;27.06;98490.53;4971165;28;1801;-78
2022/09/06 12:16:11;;;;;;;;;;;;;;;22.30;26.72;98475.13;4975926;28;1979;-79
2022/09/06 12:18:46;;;;;;;;;;;;;;;22.43;26.69;98474.44;4960253;28;981;-80
2022/09/06 12:21:29;;;;;;;;;;;;;;;22.28;26.71;98477.63;4976054;28;1162;-80
2022/09/06 12:23:55;;;;;;;;;;;;;;;22.07;27.05;98466.69;4975857;28;1702;-79
2022/09/06 12:26:39;;;;;;;;;;;;;;;21.78;27.52;98472.94;4974757;28;977;-80
2022/09/06 12:29:08;;;;;;;;;;;;;;;21.89;27.72;98486.09;5026468;28;920;-79
2022/09/06 12:31:36;;;;;;;;;;;;;;;21.75;27.83;98482.31;5019140;28;963;-79
2022/09/06 12:34:06;;;;;;;;;;;;;;;21.81;27.63;98476.94;5014805;28;1682;-79
2022/09/06 12:36:32;;;;;;;;;;;;;;;21.76;27.88;98485.94;5039176;28;1906;-79
2022/09/06 12:39:07;;;;;;;;;;;;;;;21.73;27.62;98487.63;5056788;28;922;-79
2022/09/06 12:41:36;;;;;;;;;;;;;;;21.83;27.41;98491.47;5056774;28;912;-79
2022/09/06 12:44:03;;;;;;;;;;;;;;;22.06;27.33;98487.75;5037758;28;1684;-79
2022/09/06 12:46:28;;;;;;;;;;;;;;;22.31;26.67;98482.38;5038695;28;882;-80
2022/09/06 12:49:07;;;;;;;;;;;;;;;22.42;26.51;98487.81;5021824;28;1174;-79
2022/09/06 12:51:33;;;;;;;;;;;;;;;21.99;27.15;98476.59;5056534;28;1028;-80
2022/09/06 12:54:00;;;;;;;;;;;;;;;21.82;27.57;98485.00;5037652;28;1720;-79
2022/09/06 12:56:26;;;;;;;;;;;;;;;21.71;27.48;98483.59;5056058;28;1922;-80
2022/09/06 12:58:51;;;;;;;;;;;;;;;21.74;27.82;98483.53;5056661;28;911;-79
2022/09/06 13:01:21;;;;;;;;;;;;;;;21.85;27.24;98481.28;5065912;28;1159;-79
2022/09/06 13:03:56;;;;;;;;;;;;;;;21.87;27.27;98480.09;5075322;28;1758;-80
2022/09/06 13:06:22;;;;;;;;;;;;;;;22.26;26.79;98480.06;5075263;28;1809;-79
2022/09/06 13:08:51;;;;;;;;;;;;;;;22.43;26.22;98482.94;5058671;28;867;-80